Time;durP1;ratioP1;P1;durP2;ratioP2;P2;SDS_P1;SDS_P2;PMS_P1;PMS_P2;Temp;Humidity;BMP_temperature;BMP_pressure;BME280_temperature;BME280_humidity;BME280_pressure;Samples;Min_cycle;Max_cycle;Signal;HPM_P1;HPM_P2
2022/06/14 00:00:55;;;;;;;5.03;3.15;;;13.80;99.90;;;;;;5095570;28;20285;-76
2022/06/14 00:03:22;;;;;;;6.07;3.67;;;13.80;99.90;;;;;;5094899;28;20182;-73
2022/06/14 00:05:48;;;;;;;3.58;3.28;;;13.60;99.90;;;;;;5096063;28;20272;-73
2022/06/14 00:08:15;;;;;;;4.88;3.22;;;13.60;99.90;;;;;;5101879;28;20170;-73
2022/06/14 00:10:41;;;;;;;5.47;3.33;;;13.60;99.90;;;;;;5091376;28;20261;-73
2022/06/14 00:13:08;;;;;;;4.03;3.58;;;13.70;99.90;;;;;;5093584;28;20617;-73
2022/06/14 00:15:39;;;;;;;3.55;3.22;;;13.70;99.90;;;;;;5094198;28;20201;-73
2022/06/14 00:18:05;;;;;;;4.18;3.72;;;13.60;99.90;;;;;;5105075;28;20177;-73
2022/06/14 00:20:31;;;;;;;4.45;3.53;;;13.60;99.90;;;;;;5097259;28;20539;-73
2022/06/14 00:22:57;;;;;;;4.10;3.47;;;13.50;99.90;;;;;;5099988;28;20209;-73
2022/06/14 00:25:53;;;;;;;4.88;3.65;;;13.40;99.90;;;;;;5098931;28;20178;-73
2022/06/14 00:28:21;;;;;;;6.60;3.38;;;13.30;99.90;;;;;;5086986;28;20198;-73
2022/06/14 00:30:51;;;;;;;3.90;3.50;;;13.30;99.90;;;;;;5096380;28;20749;-73
2022/06/14 00:33:17;;;;;;;6.38;4.00;;;13.20;99.90;;;;;;5103626;28;20302;-72
2022/06/14 00:35:43;;;;;;;4.53;3.60;;;13.10;99.90;;;;;;5093756;28;20210;-73
2022/06/14 00:38:11;;;;;;;6.03;3.90;;;13.00;99.90;;;;;;5105430;27;20253;-72
2022/06/14 00:40:38;;;;;;;4.93;4.00;;;13.00;99.90;;;;;;5095801;28;20186;-72
2022/06/14 00:43:14;;;;;;;5.50;3.78;;;12.90;99.90;;;;;;5092505;28;20676;-73
2022/06/14 00:45:40;;;;;;;6.85;4.07;;;12.90;99.90;;;;;;5094410;28;20660;-73
2022/06/14 00:48:41;;;;;;;4.38;3.97;;;12.90;99.90;;;;;;5106563;28;20178;-73
2022/06/14 00:51:17;;;;;;;5.03;3.78;;;12.90;99.90;;;;;;5083144;28;20648;-73
2022/06/14 00:54:12;;;;;;;5.03;4.38;;;12.90;99.90;;;;;;5095596;28;20177;-72
2022/06/14 00:56:50;;;;;;;4.38;3.67;;;12.90;99.90;;;;;;5096213;28;20182;-75
2022/06/14 00:59:26;;;;;;;4.95;4.30;;;12.90;99.90;;;;;;5082866;28;20167;-73
2022/06/14 01:01:58;;;;;;;4.13;3.67;;;13.00;99.90;;;;;;5086381;28;20248;-72
2022/06/14 01:04:29;;;;;;;4.35;3.92;;;13.00;99.90;;;;;;5085275;28;20186;-73
2022/06/14 01:07:01;;;;;;;3.80;3.40;;;13.10;99.90;;;;;;5095202;28;20221;-73
2022/06/14 01:09:39;;;;;;;4.63;3.92;;;13.20;99.90;;;;;;5097195;28;20690;-74
2022/06/14 01:12:14;;;;;;;6.55;4.30;;;13.30;99.90;;;;;;5093983;28;20277;-73
2022/06/14 01:15:01;;;;;;;4.28;3.80;;;13.40;99.90;;;;;;5085718;28;20768;-73
2022/06/14 01:17:31;;;;;;;3.67;3.40;;;13.40;99.90;;;;;;5083897;28;20185;-73
2022/06/14 01:19:58;;;;;;;4.15;3.85;;;13.50;99.90;;;;;;5085850;28;20229;-73
2022/06/14 01:22:26;;;;;;;5.32;3.90;;;13.60;99.90;;;;;;5090589;28;20826;-72
2022/06/14 01:24:52;;;;;;;4.35;3.95;;;13.60;99.90;;;;;;5090887;28;20179;-72
2022/06/14 01:27:20;;;;;;;6.47;3.80;;;13.70;99.90;;;;;;5090693;28;20187;-72
2022/06/14 01:29:54;;;;;;;4.68;3.67;;;13.80;99.90;;;;;;5094062;28;20259;-73
2022/06/14 01:32:20;;;;;;;6.90;3.88;;;13.80;99.90;;;;;;5088595;28;20198;-73
2022/06/14 01:34:51;;;;;;;3.60;3.40;;;13.70;99.90;;;;;;5092970;28;20681;-73
2022/06/14 01:37:17;;;;;;;5.38;4.15;;;13.70;99.90;;;;;;5087947;28;20261;-73
2022/06/14 01:39:43;;;;;;;4.85;3.63;;;13.60;99.90;;;;;;5090734;28;20188;-72
2022/06/14 01:42:29;;;;;;;4.30;3.92;;;13.60;99.90;;;;;;5095265;28;20194;-72
2022/06/14 01:45:31;;;;;;;3.88;3.42;;;13.60;99.90;;;;;;5079479;28;20596;-73
2022/06/14 01:48:08;;;;;;;5.00;3.75;;;13.70;99.90;;;;;;5090246;28;20190;-73
2022/06/14 01:54:01;;;;;;;7.55;4.15;;;13.80;99.90;;;;;;5101538;28;20193;-72
2022/06/14 01:57:02;;;;;;;5.80;3.20;;;13.90;99.90;;;;;;5089101;28;20265;-72
2022/06/14 01:59:47;;;;;;;5.13;3.80;;;13.90;99.90;;;;;;5090965;28;20191;-72
2022/06/14 02:02:40;;;;;;;3.88;3.47;;;13.80;99.90;;;;;;5088689;28;20274;-73
2022/06/14 02:05:32;;;;;;;4.68;3.95;;;13.70;99.90;;;;;;5092415;28;20190;-72
2022/06/14 02:08:11;;;;;;;4.40;3.60;;;13.60;99.90;;;;;;5095741;28;20700;-72
2022/06/14 02:10:52;;;;;;;4.75;4.03;;;13.60;99.90;;;;;;5102619;28;20332;-72
2022/06/14 02:13:25;;;;;;;4.22;3.50;;;13.50;99.90;;;;;;5094151;28;20174;-72
2022/06/14 02:16:27;;;;;;;4.43;3.70;;;13.60;99.90;;;;;;5086633;28;20201;-73
2022/06/14 02:19:07;;;;;;;3.75;3.38;;;13.50;99.90;;;;;;5095229;28;20170;-73
2022/06/14 02:21:46;;;;;;;4.93;4.43;;;13.40;99.90;;;;;;5096755;28;20227;-72
2022/06/14 02:24:20;;;;;;;4.30;4.00;;;13.40;99.90;;;;;;5095709;28;20194;-72
2022/06/14 02:26:57;;;;;;;4.22;3.83;;;13.20;99.90;;;;;;5097255;28;20197;-73
2022/06/14 02:29:37;;;;;;;4.38;3.75;;;13.20;99.90;;;;;;5091977;28;20659;-72
2022/06/14 02:32:08;;;;;;;6.78;3.65;;;13.10;99.90;;;;;;5102825;28;20213;-73
2022/06/14 02:34:42;;;;;;;4.88;4.05;;;13.10;99.90;;;;;;5086942;28;20464;-73
2022/06/14 02:37:49;;;;;;;6.57;4.35;;;13.00;99.90;;;;;;5096765;28;20210;-73
2022/06/14 02:40:26;;;;;;;5.00;4.50;;;13.00;99.90;;;;;;5030430;28;20175;-73
2022/06/14 02:42:59;;;;;;;6.75;4.07;;;12.90;99.90;;;;;;5052873;28;20278;-73
2022/06/14 02:45:44;;;;;;;5.22;3.67;;;13.00;99.90;;;;;;5071234;28;20205;-73
2022/06/14 02:48:16;;;;;;;6.28;4.70;;;12.90;99.90;;;;;;5094908;28;20187;-73
2022/06/14 02:51:05;;;;;;;4.88;4.00;;;12.90;99.90;;;;;;5092864;28;20529;-73
2022/06/14 02:53:39;;;;;;;3.95;3.65;;;12.80;99.90;;;;;;5094701;28;20252;-73
2022/06/14 02:56:13;;;;;;;4.55;4.20;;;12.80;99.90;;;;;;5091751;28;20586;-73
2022/06/14 02:58:50;;;;;;;4.43;3.45;;;12.80;99.90;;;;;;5089557;28;20181;-73
2022/06/14 03:01:26;;;;;;;4.57;4.18;;;12.80;99.90;;;;;;5087408;28;20194;-73
2022/06/14 03:03:57;;;;;;;4.88;4.05;;;12.70;99.90;;;;;;5094531;28;20257;-73
2022/06/14 03:06:49;;;;;;;4.72;4.32;;;12.70;99.90;;;;;;5089509;28;20186;-73
2022/06/14 03:09:20;;;;;;;4.63;4.20;;;12.70;99.90;;;;;;5085349;28;20238;-73
2022/06/14 03:12:00;;;;;;;5.43;3.80;;;12.70;99.90;;;;;;5094840;28;20257;-73
2022/06/14 03:15:03;;;;;;;5.57;4.35;;;12.60;99.90;;;;;;5087296;28;20218;-72
2022/06/14 03:18:06;;;;;;;7.72;4.05;;;12.60;99.90;;;;;;5093059;28;20265;-73
2022/06/14 03:20:54;;;;;;;4.85;4.35;;;12.60;99.90;;;;;;5094793;28;20246;-72
2022/06/14 03:23:36;;;;;;;5.25;4.07;;;12.70;99.90;;;;;;5085017;28;20558;-72
2022/06/14 03:26:24;;;;;;;8.30;3.83;;;12.70;99.90;;;;;;5097689;28;20181;-72
2022/06/14 03:29:08;;;;;;;5.20;3.97;;;12.60;99.90;;;;;;5087542;28;20202;-72
2022/06/14 03:31:44;;;;;;;5.32;4.30;;;12.60;99.90;;;;;;5093722;28;20206;-73
2022/06/14 03:34:15;;;;;;;4.22;3.72;;;12.60;99.90;;;;;;5091673;28;20198;-73
2022/06/14 03:36:41;;;;;;;6.05;4.30;;;12.50;99.90;;;;;;5093809;28;20653;-73
2022/06/14 03:39:19;;;;;;;4.93;4.47;;;12.50;99.90;;;;;;5097508;28;20224;-73
2022/06/14 03:41:49;;;;;;;4.90;4.00;;;12.50;99.90;;;;;;5095111;28;20208;-73
2022/06/14 03:44:16;;;;;;;3.97;3.67;;;12.40;99.90;;;;;;5093359;28;20214;-73
2022/06/14 03:47:10;;;;;;;5.10;4.57;;;12.40;99.90;;;;;;5098746;28;20181;-73
2022/06/14 03:49:41;;;;;;;4.53;3.95;;;12.40;99.90;;;;;;5072020;28;20191;-73
2022/06/14 03:52:41;;;;;;;7.32;4.50;;;12.40;99.90;;;;;;5098052;28;20252;-73
2022/06/14 03:55:43;;;;;;;5.40;4.30;;;12.40;99.90;;;;;;5092263;28;20277;-73
2022/06/14 03:58:22;;;;;;;5.32;4.15;;;12.40;99.90;;;;;;5085845;28;20180;-73
2022/06/14 04:00:56;;;;;;;4.30;4.00;;;12.40;99.90;;;;;;5090090;28;20701;-73
2022/06/14 04:04:09;;;;;;;4.85;4.13;;;12.40;99.90;;;;;;5096251;28;20179;-72
2022/06/14 04:06:50;;;;;;;4.13;3.83;;;12.50;99.90;;;;;;5051573;28;20270;-72
2022/06/14 04:09:42;;;;;;;5.38;4.22;;;12.50;99.90;;;;;;5039538;28;20179;-71
2022/06/14 04:12:20;;;;;;;4.25;3.88;;;12.70;99.90;;;;;;5090501;28;20214;-73
2022/06/14 04:15:36;;;;;;;7.30;4.93;;;12.70;99.90;;;;;;5098832;28;20201;-73
2022/06/14 04:18:38;;;;;;;5.13;4.63;;;12.80;99.90;;;;;;5032463;28;20208;-72
2022/06/14 04:21:30;;;;;;;4.53;3.97;;;12.90;99.90;;;;;;5031874;28;20195;-72
2022/06/14 04:24:14;;;;;;;5.35;3.90;;;13.00;99.90;;;;;;5094344;28;20199;-72
2022/06/14 04:27:08;;;;;;;5.13;4.18;;;13.10;99.90;;;;;;5106553;28;20214;-72
2022/06/14 04:30:04;;;;;;;5.10;4.60;;;13.20;99.90;;;;;;5099169;28;20276;-72
2022/06/14 04:32:45;;;;;;;5.22;4.30;;;13.30;99.90;;;;;;5099145;28;20335;-71
2022/06/14 04:35:23;;;;;;;4.57;4.10;;;13.40;99.90;;;;;;5093413;28;20612;-72
2022/06/14 04:38:10;;;;;;;4.47;4.00;;;13.60;99.90;;;;;;5106168;28;20183;-71
2022/06/14 04:40:49;;;;;;;8.23;3.97;;;13.80;99.90;;;;;;5095111;28;20183;-72
2022/06/14 04:43:21;;;;;;;4.75;4.20;;;14.00;99.90;;;;;;5102189;28;20225;-71
2022/06/14 04:45:57;;;;;;;4.40;4.00;;;14.00;99.90;;;;;;5096000;28;20189;-71
2022/06/14 04:48:34;;;;;;;4.75;4.22;;;14.00;99.90;;;;;;5097094;28;20183;-72
2022/06/14 04:51:20;;;;;;;4.60;3.85;;;14.00;99.90;;;;;;5094157;28;20178;-74
2022/06/14 04:54:15;;;;;;;4.75;4.05;;;14.00;99.90;;;;;;5098480;28;20277;-76
2022/06/14 04:56:52;;;;;;;4.70;4.30;;;14.10;99.90;;;;;;5065922;28;20188;-75
2022/06/14 04:59:26;;;;;;;4.30;3.92;;;14.10;99.90;;;;;;5094508;28;20166;-76
2022/06/14 05:02:00;;;;;;;3.95;3.65;;;14.20;99.90;;;;;;5083586;28;20206;-78
2022/06/14 05:04:40;;;;;;;5.15;4.57;;;14.20;99.90;;;;;;5087792;28;20563;-74
2022/06/14 05:07:12;;;;;;;4.80;4.40;;;14.30;99.90;;;;;;5086057;28;20185;-73
2022/06/14 05:09:44;;;;;;;5.72;4.47;;;14.30;99.90;;;;;;5088845;28;20646;-72
2022/06/14 05:12:39;;;;;;;4.97;4.38;;;14.30;99.90;;;;;;5085459;28;20210;-76
2022/06/14 05:15:05;;;;;;;4.32;3.78;;;14.50;99.90;;;;;;5094071;28;20652;-73
2022/06/14 05:17:43;;;;;;;5.47;3.80;;;14.60;99.90;;;;;;5095148;28;20198;-76
2022/06/14 05:20:21;;;;;;;3.53;3.22;;;14.80;99.90;;;;;;5085709;28;20176;-73
2022/06/14 05:23:07;;;;;;;7.82;3.42;;;14.80;99.90;;;;;;5096119;28;20254;-73
2022/06/14 05:25:53;;;;;;;4.57;4.07;;;15.00;99.90;;;;;;5099180;28;20179;-76
2022/06/14 05:28:38;;;;;;;5.38;3.60;;;15.10;99.90;;;;;;5081388;28;20198;-73
2022/06/14 05:31:26;;;;;;;4.97;3.90;;;15.10;99.90;;;;;;5089372;28;20583;-73
2022/06/14 05:34:27;;;;;;;4.22;3.80;;;15.10;99.90;;;;;;5085453;28;20175;-72
2022/06/14 05:36:59;;;;;;;3.88;3.58;;;15.20;99.90;;;;;;5083243;28;20660;-72
2022/06/14 05:39:36;;;;;;;4.85;3.40;;;15.20;99.90;;;;;;5089365;28;20175;-74
2022/06/14 05:42:19;;;;;;;4.15;3.42;;;15.30;99.90;;;;;;5092364;28;20277;-75
2022/06/14 05:44:48;;;;;;;4.60;3.90;;;15.30;99.90;;;;;;5090956;28;20667;-75
2022/06/14 05:47:37;;;;;;;4.45;3.70;;;15.20;99.90;;;;;;5100019;28;20193;-76
2022/06/14 05:50:09;;;;;;;3.45;3.15;;;15.20;99.90;;;;;;5092274;28;20189;-75
2022/06/14 05:52:48;;;;;;;3.92;3.50;;;15.30;99.90;;;;;;5090583;28;20263;-74
2022/06/14 05:55:22;;;;;;;8.15;4.32;;;15.40;99.90;;;;;;5090993;28;20289;-74
2022/06/14 05:58:08;;;;;;;7.72;3.67;;;15.50;99.90;;;;;;5086398;28;20255;-73
2022/06/14 06:00:49;;;;;;;4.18;3.80;;;15.60;99.90;;;;;;5095539;28;20645;-73
2022/06/14 06:03:20;;;;;;;5.60;3.67;;;15.60;99.90;;;;;;5095270;28;20544;-73
2022/06/14 06:05:51;;;;;;;5.22;3.67;;;15.70;99.90;;;;;;5100319;28;20174;-73
2022/06/14 06:08:38;;;;;;;4.78;3.70;;;15.80;99.90;;;;;;5099306;28;20182;-73
2022/06/14 06:11:10;;;;;;;5.13;3.63;;;15.90;99.90;;;;;;5085789;28;20631;-74
2022/06/14 06:13:48;;;;;;;3.95;3.63;;;16.00;99.90;;;;;;5094178;28;20179;-76
2022/06/14 06:16:25;;;;;;;6.00;3.20;;;16.10;99.90;;;;;;5094839;28;20209;-78
2022/06/14 06:18:58;;;;;;;3.58;3.08;;;16.30;99.90;;;;;;5092431;28;20181;-75
2022/06/14 06:21:37;;;;;;;4.65;3.40;;;16.30;99.90;;;;;;5092294;28;20269;-76
2022/06/14 06:24:11;;;;;;;3.85;3.10;;;16.40;99.90;;;;;;5092903;28;20780;-77
2022/06/14 06:26:41;;;;;;;4.03;3.00;;;16.50;99.90;;;;;;5091541;28;20265;-75
2022/06/14 06:29:23;;;;;;;4.65;3.15;;;16.70;99.90;;;;;;5088031;28;20198;-76
2022/06/14 06:31:55;;;;;;;3.35;2.95;;;16.80;99.90;;;;;;5068770;28;20695;-74
2022/06/14 06:34:21;;;;;;;3.78;2.90;;;16.90;99.90;;;;;;5048886;28;20204;-74
2022/06/14 06:36:55;;;;;;;3.00;2.70;;;17.10;99.90;;;;;;5039883;28;20190;-75
2022/06/14 06:39:26;;;;;;;3.30;3.00;;;17.20;99.90;;;;;;5046546;28;20731;-75
2022/06/14 06:41:58;;;;;;;4.78;2.85;;;17.30;99.90;;;;;;5049082;28;20196;-75
2022/06/14 06:44:45;;;;;;;3.35;2.72;;;17.40;99.90;;;;;;5046056;28;20219;-76
2022/06/14 06:47:21;;;;;;;4.78;3.05;;;17.50;99.90;;;;;;5048910;28;20554;-74
2022/06/14 06:50:24;;;;;;;4.53;3.10;;;17.70;99.90;;;;;;5047096;28;20171;-75
2022/06/14 06:53:15;;;;;;;4.10;2.60;;;17.70;99.90;;;;;;5043308;28;20832;-74
2022/06/14 06:56:04;;;;;;;3.35;2.85;;;17.80;99.90;;;;;;5056266;28;20288;-74
2022/06/14 06:59:09;;;;;;;2.78;2.58;;;17.90;99.90;;;;;;5045622;28;20168;-74
2022/06/14 07:01:38;;;;;;;3.40;2.85;;;18.00;99.90;;;;;;5031923;28;20578;-74
2022/06/14 07:07:26;;;;;;;4.90;3.15;;;18.10;99.90;;;;;;5036565;28;20179;-74
2022/06/14 07:10:05;;;;;;;3.03;2.55;;;18.20;99.90;;;;;;5049892;28;20294;-73
2022/06/14 07:12:53;;;;;;;3.47;2.53;;;18.30;99.90;;;;;;5043164;28;20282;-73
2022/06/14 07:15:28;;;;;;;4.68;2.50;;;18.50;99.90;;;;;;5042816;28;20168;-74
2022/06/14 07:18:21;;;;;;;4.82;2.65;;;18.50;99.90;;;;;;5046757;28;20211;-74
2022/06/14 07:21:18;;;;;;;3.15;2.35;;;18.60;99.90;;;;;;5041859;28;20291;-73
2022/06/14 07:23:51;;;;;;;3.65;2.38;;;18.60;99.90;;;;;;5043865;28;20199;-74
2022/06/14 07:26:23;;;;;;;3.22;2.65;;;18.70;99.90;;;;;;5049416;28;20180;-74
2022/06/14 07:28:56;;;;;;;5.50;2.65;;;18.80;99.90;;;;;;5043439;28;20203;-73
2022/06/14 07:31:37;;;;;;;3.15;2.40;;;18.80;99.90;;;;;;5044181;28;20322;-73
2022/06/14 07:34:03;;;;;;;2.75;2.40;;;18.90;99.90;;;;;;5043729;28;20203;-74
2022/06/14 07:36:48;;;;;;;3.17;2.55;;;19.00;99.90;;;;;;5050306;28;20214;-73
2022/06/14 07:39:20;;;;;;;2.10;1.95;;;19.10;99.90;;;;;;5039482;28;20230;-73
2022/06/14 07:42:04;;;;;;;2.08;1.83;;;19.30;99.90;;;;;;5040792;28;20215;-74
2022/06/14 07:45:03;;;;;;;3.35;2.38;;;19.40;99.90;;;;;;5035424;28;20176;-73
2022/06/14 07:47:47;;;;;;;2.95;2.13;;;19.50;99.90;;;;;;5033489;28;20196;-74
2022/06/14 07:50:28;;;;;;;3.88;2.20;;;19.60;99.90;;;;;;5026984;28;20201;-73
2022/06/14 07:53:04;;;;;;;2.67;2.40;;;19.50;99.90;;;;;;5037907;28;20204;-73
2022/06/14 07:55:46;;;;;;;2.72;2.17;;;19.60;98.60;;;;;;5026268;28;20176;-73
2022/06/14 07:58:26;;;;;;;2.55;2.05;;;19.60;99.90;;;;;;5023971;28;20191;-73
2022/06/14 08:01:08;;;;;;;3.25;2.55;;;19.60;96.30;;;;;;5029789;28;20188;-74
2022/06/14 08:03:52;;;;;;;2.22;2.03;;;19.70;95.20;;;;;;5027349;28;20192;-74
2022/06/14 08:06:41;;;;;;;3.38;2.30;;;19.70;97.50;;;;;;5028714;28;20676;-74
2022/06/14 08:09:33;;;;;;;5.35;2.60;;;19.80;96.00;;;;;;5029750;28;20181;-74
2022/06/14 08:12:02;;;;;;;2.53;2.33;;;19.80;97.00;;;;;;5029670;28;20205;-75
2022/06/14 08:15:01;;;;;;;3.70;2.25;;;19.90;97.90;;;;;;5025260;28;20268;-75
2022/06/14 08:17:35;;;;;;;2.50;2.30;;;20.00;94.90;;;;;;5031243;28;20177;-75
2022/06/14 08:20:29;;;;;;;2.47;2.20;;;20.10;96.40;;;;;;5029972;28;20663;-75
2022/06/14 08:23:02;;;;;;;5.93;3.00;;;20.20;93.70;;;;;;5025777;28;20763;-74
2022/06/14 08:25:35;;;;;;;2.80;2.35;;;20.20;97.70;;;;;;5030180;28;20184;-73
2022/06/14 08:28:09;;;;;;;5.18;2.78;;;20.30;94.60;;;;;;5029560;28;20575;-74
2022/06/14 08:30:59;;;;;;;2.67;2.17;;;20.40;92.90;;;;;;5027341;28;20216;-73
2022/06/14 08:33:25;;;;;;;2.70;2.50;;;20.40;95.90;;;;;;5032282;28;20250;-74
2022/06/14 08:35:52;;;;;;;3.03;2.55;;;20.50;96.90;;;;;;5031703;28;20655;-73
2022/06/14 08:38:26;;;;;;;3.65;2.22;;;20.70;95.50;;;;;;5029891;28;20176;-73
2022/06/14 08:41:05;;;;;;;2.78;2.55;;;20.90;95.60;;;;;;5028332;28;20192;-73
2022/06/14 08:43:55;;;;;;;4.72;2.75;;;20.90;93.10;;;;;;5028610;28;20647;-74
2022/06/14 08:46:20;;;;;;;3.40;2.40;;;21.00;91.90;;;;;;5031845;28;20185;-73
2022/06/14 08:49:08;;;;;;;4.25;2.50;;;20.90;90.30;;;;;;5024790;28;20536;-74
2022/06/14 08:51:58;;;;;;;2.72;2.42;;;20.90;93.30;;;;;;5031526;28;20300;-73
2022/06/14 08:55:00;;;;;;;2.72;2.42;;;20.90;93.70;;;;;;5024285;28;20176;-78
2022/06/14 08:57:34;;;;;;;3.42;2.60;;;20.90;90.80;;;;;;5018971;28;20186;-75
2022/06/14 09:00:24;;;;;;;2.75;2.50;;;20.90;91.40;;;;;;5027617;28;20179;-74
2022/06/14 09:03:11;;;;;;;5.57;3.05;;;21.00;90.30;;;;;;5027211;28;20679;-74
2022/06/14 09:06:10;;;;;;;4.60;2.97;;;21.20;95.40;;;;;;5030031;28;20191;-75
2022/06/14 09:08:55;;;;;;;5.05;3.13;;;21.30;91.90;;;;;;5032302;28;20196;-74
2022/06/14 09:11:41;;;;;;;6.68;2.92;;;21.50;91.30;;;;;;5032261;28;20227;-75
2022/06/14 09:14:37;;;;;;;4.57;2.70;;;21.50;90.40;;;;;;5025101;28;20210;-74
2022/06/14 09:17:21;;;;;;;6.13;2.45;;;21.70;94.30;;;;;;5037097;28;20274;-74
2022/06/14 09:19:58;;;;;;;4.18;2.25;;;21.80;90.90;;;;;;5026939;28;20188;-74
2022/06/14 09:22:54;;;;;;;2.60;2.40;;;21.90;88.50;;;;;;5038174;28;20203;-76
2022/06/14 09:25:45;;;;;;;4.93;2.05;;;22.10;82.40;;;;;;5027300;28;20176;-74
2022/06/14 09:28:35;;;;;;;2.40;2.20;;;22.20;83.70;;;;;;5024681;28;20204;-74
2022/06/14 09:31:38;;;;;;;2.72;2.25;;;22.30;87.90;;;;;;5029772;28;20292;-74
2022/06/14 09:34:44;;;;;;;2.47;2.30;;;22.60;80.90;;;;;;5016425;28;20576;-74
2022/06/14 09:37:16;;;;;;;4.07;2.30;;;22.80;81.10;;;;;;5021678;28;20191;-75
2022/06/14 09:40:00;;;;;;;2.47;2.28;;;23.90;85.00;;;;;;5022346;28;20179;-73
2022/06/14 09:42:40;;;;;;;2.70;2.13;;;26.30;70.70;;;;;;5028291;28;20563;-74
2022/06/14 09:45:23;;;;;;;4.05;2.42;;;28.90;65.10;;;;;;5027779;28;20200;-72
2022/06/14 09:48:07;;;;;;;2.40;2.20;;;31.10;57.00;;;;;;5034341;28;20224;-72
2022/06/14 09:50:58;;;;;;;3.38;2.20;;;32.70;53.30;;;;;;5021722;28;20258;-69
2022/06/14 09:53:54;;;;;;;3.67;2.35;;;34.00;48.80;;;;;;5026000;28;20643;-70
2022/06/14 09:56:57;;;;;;;2.22;2.03;;;35.60;44.80;;;;;;5021087;28;20713;-70
2022/06/14 09:59:32;;;;;;;3.67;2.40;;;36.10;42.50;;;;;;5009028;28;20220;-69
2022/06/14 10:02:12;;;;;;;2.78;1.98;;;37.10;42.70;;;;;;5020840;28;20203;-70
2022/06/14 10:04:54;;;;;;;4.78;2.40;;;37.40;39.30;;;;;;5020389;28;20173;-69
2022/06/14 10:08:00;;;;;;;5.13;2.17;;;37.10;42.00;;;;;;5024151;28;20286;-70
2022/06/14 10:10:47;;;;;;;2.85;2.10;;;37.90;39.40;;;;;;5026708;28;20672;-70
2022/06/14 10:13:34;;;;;;;5.35;2.35;;;38.00;40.10;;;;;;5029384;28;20183;-69
2022/06/14 10:16:20;;;;;;;3.03;1.90;;;38.20;37.70;;;;;;5026286;28;20208;-70
2022/06/14 10:19:04;;;;;;;2.38;2.20;;;38.60;36.50;;;;;;5034791;28;20214;-69
2022/06/14 10:21:43;;;;;;;2.38;2.15;;;39.30;36.10;;;;;;5018517;28;20283;-69
2022/06/14 10:24:24;;;;;;;2.85;2.10;;;38.60;38.50;;;;;;5033800;28;20187;-70
2022/06/14 10:30:07;;;;;;;4.03;2.40;;;38.50;34.60;;;;;;5024997;28;20700;-70
2022/06/14 10:33:01;;;;;;;2.97;2.15;;;36.50;36.90;;;;;;5025224;28;20571;-70
2022/06/14 10:35:45;;;;;;;2.05;1.90;;;34.00;38.00;;;;;;5026462;28;20184;-70
2022/06/14 10:38:27;;;;;;;3.33;2.30;;;33.30;41.60;;;;;;5031450;28;20175;-72
2022/06/14 10:41:00;;;;;;;1.88;1.77;;;34.10;42.10;;;;;;5022162;28;20223;-72
2022/06/14 10:43:36;;;;;;;2.40;1.83;;;35.90;39.60;;;;;;5019958;28;21132;-71
2022/06/14 10:46:18;;;;;;;4.03;1.90;;;37.10;37.10;;;;;;5030836;28;20180;-72
2022/06/14 10:48:51;;;;;;;3.95;2.40;;;38.10;36.00;;;;;;5026848;28;20183;-72
2022/06/14 10:51:43;;;;;;;3.95;2.08;;;38.70;36.00;;;;;;5031437;28;20217;-71
2022/06/14 10:54:20;;;;;;;1.63;1.52;;;38.00;34.40;;;;;;5021057;28;20667;-71
2022/06/14 10:57:12;;;;;;;3.33;2.00;;;37.60;37.30;;;;;;5020086;28;20214;-72
2022/06/14 10:59:58;;;;;;;2.13;2.03;;;38.00;36.00;;;;;;5018154;28;20173;-77
2022/06/14 11:02:52;;;;;;;2.95;2.20;;;36.90;36.60;;;;;;5030082;28;20571;-75
2022/06/14 11:05:33;;;;;;;2.75;2.03;;;36.20;39.10;;;;;;5038056;28;20176;-71
2022/06/14 11:08:05;;;;;;;3.42;2.22;;;36.90;39.00;;;;;;5027734;28;20180;-71
2022/06/14 11:10:49;;;;;;;3.22;2.00;;;37.10;37.20;;;;;;5036222;28;20200;-70
2022/06/14 11:13:47;;;;;;;2.83;1.95;;;37.30;36.70;;;;;;5028221;28;20180;-71
2022/06/14 11:16:29;;;;;;;2.47;1.90;;;37.90;37.00;;;;;;5028131;28;20646;-73
2022/06/14 11:19:59;;;;;;;3.03;2.00;;;37.70;37.40;;;;;;5028176;28;20267;-73
2022/06/14 11:22:19;;;;;;;4.10;2.00;;;38.30;37.40;;;;;;5029227;28;20247;-71
2022/06/14 11:25:14;;;;;;;1.88;1.77;;;39.60;34.80;;;;;;5029925;28;20176;-76
2022/06/14 11:28:08;;;;;;;2.72;2.10;;;39.00;34.10;;;;;;5030891;28;20183;-70
2022/06/14 11:30:44;;;;;;;2.72;2.00;;;38.50;34.30;;;;;;5039671;28;20200;-72
2022/06/14 11:33:24;;;;;;;2.65;1.92;;;37.90;36.50;;;;;;5025507;28;20172;-70
2022/06/14 11:36:16;;;;;;;2.50;1.95;;;38.00;37.00;;;;;;5036967;28;20661;-69
2022/06/14 11:38:55;;;;;;;2.80;1.85;;;38.10;35.70;;;;;;5026573;28;20317;-70
2022/06/14 11:41:24;;;;;;;2.38;1.48;;;37.90;35.00;;;;;;5032823;28;20234;-70
2022/06/14 11:44:01;;;;;;;1.98;1.75;;;38.50;35.40;;;;;;5034193;28;20184;-70
2022/06/14 11:46:40;;;;;;;1.80;1.60;;;38.20;34.90;;;;;;5025250;28;20176;-70
2022/06/14 11:49:20;;;;;;;2.95;2.08;;;37.80;36.50;;;;;;5031439;28;20222;-70
2022/06/14 11:52:13;;;;;;;4.00;1.73;;;37.60;34.80;;;;;;5027303;28;20305;-70
2022/06/14 11:54:55;;;;;;;2.70;1.70;;;37.20;35.10;;;;;;5024336;28;20260;-70
2022/06/14 11:57:30;;;;;;;2.70;1.77;;;37.10;37.00;;;;;;5029976;28;20255;-70
2022/06/14 12:00:12;;;;;;;1.60;1.48;;;37.50;36.20;;;;;;5028741;28;20190;-70
2022/06/14 12:02:59;;;;;;;1.98;1.73;;;37.60;34.00;;;;;;5031339;28;20592;-71
2022/06/14 12:05:34;;;;;;;2.22;1.92;;;37.50;34.30;;;;;;5037446;28;20179;-71
2022/06/14 12:08:17;;;;;;;2.28;1.83;;;37.80;35.20;;;;;;5027871;28;20235;-71
2022/06/14 12:10:50;;;;;;;2.65;1.90;;;37.20;35.80;;;;;;5031048;28;20610;-71
2022/06/14 12:13:31;;;;;;;3.30;2.13;;;37.20;37.90;;;;;;5024405;28;20176;-70
2022/06/14 12:16:22;;;;;;;3.35;1.75;;;37.90;35.50;;;;;;5031487;28;20199;-71
2022/06/14 12:19:22;;;;;;;2.08;1.83;;;38.10;35.70;;;;;;5028940;28;20199;-70
2022/06/14 12:22:26;;;;;;;1.50;1.40;;;38.10;35.10;;;;;;5032452;28;20212;-69
2022/06/14 12:27:42;;;;;;;2.92;1.80;;;38.00;34.60;;;;;;5032832;28;20239;-71
2022/06/14 12:30:11;;;;;;;4.18;2.00;;;38.10;33.50;;;;;;5026863;28;20698;-71
2022/06/14 12:32:43;;;;;;;1.80;1.70;;;37.80;33.50;;;;;;5021912;28;20196;-71
2022/06/14 12:35:14;;;;;;;2.78;1.80;;;39.20;32.60;;;;;;5030858;28;20196;-71
2022/06/14 12:38:03;;;;;;;2.05;1.45;;;39.00;33.40;;;;;;5025310;28;20483;-71
2022/06/14 12:40:46;;;;;;;1.73;1.63;;;40.90;32.80;;;;;;5024876;28;20667;-71
2022/06/14 12:43:24;;;;;;;3.33;1.88;;;42.50;32.00;;;;;;5028942;28;20214;-70
2022/06/14 12:45:56;;;;;;;1.58;1.38;;;44.00;30.70;;;;;;5037970;28;20179;-71
2022/06/14 12:48:36;;;;;;;2.30;1.80;;;45.80;29.40;;;;;;5024990;28;20191;-71
2022/06/14 12:51:08;;;;;;;1.42;1.33;;;46.60;28.20;;;;;;5028695;28;20697;-71
2022/06/14 12:53:46;;;;;;;2.25;1.80;;;48.20;27.10;;;;;;5024361;28;20702;-71
2022/06/14 12:56:19;;;;;;;1.50;1.40;;;49.50;26.90;;;;;;5027628;28;20176;-71
2022/06/14 12:58:54;;;;;;;1.90;1.65;;;50.10;26.10;;;;;;5024039;28;20175;-71
2022/06/14 13:01:39;;;;;;;1.98;1.58;;;50.80;26.10;;;;;;5036625;28;20626;-71
2022/06/14 13:04:24;;;;;;;1.38;1.27;;;48.60;26.70;;;;;;5028432;28;20249;-71
2022/06/14 13:07:24;;;;;;;1.58;1.30;;;49.00;26.50;;;;;;5025776;28;20689;-71
2022/06/14 13:10:17;;;;;;;2.80;1.63;;;50.30;26.80;;;;;;5036446;28;20628;-71
2022/06/14 13:13:07;;;;;;;1.92;1.33;;;51.40;26.20;;;;;;5027754;28;20573;-71
2022/06/14 13:15:54;;;;;;;1.65;1.17;;;53.50;25.20;;;;;;5023901;28;20187;-72
2022/06/14 13:18:34;;;;;;;2.58;1.40;;;55.30;25.00;;;;;;5027872;28;20670;-72
2022/06/14 13:21:16;;;;;;;2.25;1.50;;;55.80;23.60;;;;;;5023373;28;20220;-71
2022/06/14 13:24:18;;;;;;;1.70;1.50;;;55.60;24.30;;;;;;5028985;28;20188;-71
2022/06/14 13:27:19;;;;;;;2.72;1.80;;;56.70;24.00;;;;;;5033031;28;20190;-71
2022/06/14 13:30:04;;;;;;;2.05;1.45;;;57.60;23.60;;;;;;5022512;28;20196;-72
2022/06/14 13:32:47;;;;;;;2.05;1.33;;;58.10;22.80;;;;;;5026130;28;20215;-71
2022/06/14 13:35:28;;;;;;;1.17;1.08;;;59.20;23.10;;;;;;5030626;28;20206;-71
2022/06/14 13:38:11;;;;;;;1.88;1.25;;;59.50;22.80;;;;;;5024795;28;20267;-71
2022/06/14 13:40:42;;;;;;;1.42;1.27;;;60.10;22.70;;;;;;5027711;28;20258;-71
2022/06/14 13:43:34;;;;;;;4.38;1.42;;;62.30;22.50;;;;;;5026909;28;20281;-71
2022/06/14 13:46:09;;;;;;;2.15;1.40;;;64.20;21.60;;;;;;5024128;28;20244;-71
2022/06/14 13:48:47;;;;;;;2.67;1.17;;;64.00;22.00;;;;;;5024755;28;20211;-70
2022/06/14 13:51:35;;;;;;;2.00;1.30;;;62.20;22.20;;;;;;5029918;28;20285;-70
2022/06/14 13:54:09;;;;;;;1.27;1.17;;;62.00;22.10;;;;;;5029246;28;20654;-71
2022/06/14 13:56:38;;;;;;;2.20;1.30;;;62.30;22.30;;;;;;5021973;28;20185;-71
2022/06/14 13:59:16;;;;;;;3.72;1.45;;;61.90;22.30;;;;;;5031643;28;20180;-70
2022/06/14 14:01:46;;;;;;;1.42;1.20;;;62.10;21.70;;;;;;5029815;28;20879;-72
2022/06/14 14:04:30;;;;;;;2.47;1.33;;;62.10;22.20;;;;;;5025748;28;20276;-71
2022/06/14 14:07:09;;;;;;;1.23;1.13;;;62.60;21.60;;;;;;5026533;28;20607;-71
2022/06/14 14:10:13;;;;;;;2.95;1.50;;;62.30;21.50;;;;;;5028970;28;20232;-72
2022/06/14 14:12:59;;;;;;;1.75;1.50;;;62.70;21.20;;;;;;5032387;28;20208;-72